Cranbury, NJ (08512)

5:59 PM EDT on April 25, 2015 (GMT -0400)
Cranbury, NJ | | Change Station
CLOSE
Current Station
Personal Weather Station
Location: Cranbury, NJ
Elevation: 125 ft
Nearby Weather Stations

Elev 125 ft 40.30 °N, 74.52 °W | Updated 0 second ago

Clear
Clear
58.3 °F
Feels Like 58.3 °F
N
3.1
Wind Variable Wind from SW
Gusts 5.4 mph

Today
High -- | Low -- °F
--% Chance of Precip.
Yesterday
High -- | Low -- °F
Precip. -- in
6:05 AM 7:47 PM
Waxing Crescent, 49% visible
Pressure 29.70 in
Visibility 10.0 miles
Clouds Clear
Dew Point 12 °F
Humidity 16%
Rainfall 0.00 in
Snow Depth Not available.
UV 1 out of 12
Pollen 10.80 out of 12
Air Quality Not available.
Flu Activity Local Activity
METAR KTTN 252153Z 27009KT 10SM CLR 14/M05 A2971 RMK AO2 SLP056 T01441050

More Conditions Fewer Conditions

Pressure 29.70 in
Visibility 10.0 miles
Clouds Clear
Dew Point 12 °F
Humidity 16%
Rainfall 0.00 in
Snow Depth Not available.
UV 1 out of 12
Pollen 10.80 out of 12
Air Quality Not available.
Flu Activity Local Activity
METAR KTTN 252153Z 27009KT 10SM CLR 14/M05 A2971 RMK AO2 SLP056 T01441050

More Conditions Fewer Conditions

10-Day Weather Forecast

Almanac

Astronomy

Apr. 25, 2015 Rise Set
Actual Time
Civil Twilight
Nautical Twilight
Astronomical Twilight
Moon
Length of Visible Light
Length of Day
Tomorrow will be .
, % of the Moon is Illuminated

Today's Extremes

State Highs State Lows

Community

WunderPhotos

Upload Photos

1,816,820 photos uploaded!

WunderBlogs® & News

Nearby

Air Quality

  Air Quality AQ Index Pollutant
Not available.

Snow Depth

Station Depth Elevation

Earthquake Activity

City Distance Mag. Time & Date
Minimum magnitude displayed is 2.5.

Coastal Water Temperatures

Place Temperature

Stations

Nearby Weather Stations

Station Location Temp. Windchill Dew Point Humidity Wind Precip. Elev Updated Type